sensor_id;sensor_type;location;lat;lon;timestamp;P1;durP1;ratioP1;P2;durP2;ratioP2
22973;SDS011;11653;50.848;4.584;2024-02-26T00:02:02;2.10;;;1.40;;
22973;SDS011;11653;50.848;4.584;2024-02-26T00:04:28;3.63;;;1.73;;
22973;SDS011;11653;50.848;4.584;2024-02-26T00:06:53;2.23;;;1.67;;
22973;SDS011;11653;50.848;4.584;2024-02-26T00:09:20;2.10;;;1.50;;
22973;SDS011;11653;50.848;4.584;2024-02-26T00:11:46;3.57;;;1.90;;
22973;SDS011;11653;50.848;4.584;2024-02-26T00:14:12;3.43;;;1.63;;
22973;SDS011;11653;50.848;4.584;2024-02-26T00:16:42;2.80;;;1.30;;
22973;SDS011;11653;50.848;4.584;2024-02-26T00:19:07;4.27;;;1.60;;
22973;SDS011;11653;50.848;4.584;2024-02-26T00:21:33;3.37;;;1.50;;
22973;SDS011;11653;50.848;4.584;2024-02-26T00:23:59;4.00;;;1.50;;
22973;SDS011;11653;50.848;4.584;2024-02-26T00:26:24;2.13;;;1.60;;
22973;SDS011;11653;50.848;4.584;2024-02-26T00:28:50;4.37;;;1.80;;
22973;SDS011;11653;50.848;4.584;2024-02-26T00:31:16;3.07;;;1.57;;
22973;SDS011;11653;50.848;4.584;2024-02-26T00:33:42;2.70;;;1.43;;
22973;SDS011;11653;50.848;4.584;2024-02-26T00:36:08;3.47;;;1.53;;
22973;SDS011;11653;50.848;4.584;2024-02-26T00:38:34;1.97;;;1.60;;
22973;SDS011;11653;50.848;4.584;2024-02-26T00:41:00;2.10;;;1.80;;
22973;SDS011;11653;50.848;4.584;2024-02-26T00:43:26;1.67;;;1.50;;
22973;SDS011;11653;50.848;4.584;2024-02-26T00:45:52;2.17;;;1.50;;
22973;SDS011;11653;50.848;4.584;2024-02-26T00:48:17;2.37;;;1.60;;
22973;SDS011;11653;50.848;4.584;2024-02-26T00:50:43;3.13;;;1.83;;
22973;SDS011;11653;50.848;4.584;2024-02-26T00:53:09;4.00;;;1.40;;
22973;SDS011;11653;50.848;4.584;2024-02-26T00:55:34;1.77;;;1.60;;
22973;SDS011;11653;50.848;4.584;2024-02-26T00:58:00;2.53;;;1.50;;
22973;SDS011;11653;50.848;4.584;2024-02-26T01:00:26;1.73;;;1.30;;
22973;SDS011;11653;50.848;4.584;2024-02-26T01:02:51;2.13;;;1.50;;
22973;SDS011;11653;50.848;4.584;2024-02-26T01:05:17;2.13;;;1.80;;
22973;SDS011;11653;50.848;4.584;2024-02-26T01:07:42;2.37;;;1.70;;
22973;SDS011;11653;50.848;4.584;2024-02-26T01:10:08;2.50;;;1.60;;
22973;SDS011;11653;50.848;4.584;2024-02-26T01:12:34;2.60;;;1.80;;
22973;SDS011;11653;50.848;4.584;2024-02-26T01:15:01;2.87;;;2.07;;
22973;SDS011;11653;50.848;4.584;2024-02-26T01:17:28;2.50;;;1.80;;
22973;SDS011;11653;50.848;4.584;2024-02-26T01:19:53;7.63;;;1.77;;
22973;SDS011;11653;50.848;4.584;2024-02-26T01:22:19;2.63;;;2.23;;
22973;SDS011;11653;50.848;4.584;2024-02-26T01:24:45;4.47;;;1.83;;
22973;SDS011;11653;50.848;4.584;2024-02-26T01:27:11;3.73;;;1.50;;
22973;SDS011;11653;50.848;4.584;2024-02-26T01:29:37;2.63;;;1.50;;
22973;SDS011;11653;50.848;4.584;2024-02-26T01:32:03;3.57;;;1.93;;
22973;SDS011;11653;50.848;4.584;2024-02-26T01:34:30;2.80;;;1.60;;
22973;SDS011;11653;50.848;4.584;2024-02-26T01:36:56;2.27;;;2.07;;
22973;SDS011;11653;50.848;4.584;2024-02-26T01:39:22;1.67;;;1.57;;
22973;SDS011;11653;50.848;4.584;2024-02-26T01:41:47;3.07;;;1.50;;
22973;SDS011;11653;50.848;4.584;2024-02-26T01:44:13;2.00;;;1.80;;
22973;SDS011;11653;50.848;4.584;2024-02-26T01:46:39;2.50;;;1.80;;
22973;SDS011;11653;50.848;4.584;2024-02-26T01:49:05;1.93;;;1.50;;
22973;SDS011;11653;50.848;4.584;2024-02-26T01:51:33;3.83;;;1.90;;
22973;SDS011;11653;50.848;4.584;2024-02-26T01:53:59;2.17;;;1.63;;
22973;SDS011;11653;50.848;4.584;2024-02-26T01:56:28;1.83;;;1.27;;
22973;SDS011;11653;50.848;4.584;2024-02-26T01:58:59;2.30;;;1.40;;
22973;SDS011;11653;50.848;4.584;2024-02-26T02:01:26;3.50;;;1.50;;
22973;SDS011;11653;50.848;4.584;2024-02-26T02:03:54;2.00;;;1.50;;
22973;SDS011;11653;50.848;4.584;2024-02-26T02:06:22;2.30;;;1.47;;
22973;SDS011;11653;50.848;4.584;2024-02-26T02:08:48;4.90;;;1.30;;
22973;SDS011;11653;50.848;4.584;2024-02-26T02:11:14;3.07;;;1.60;;
22973;SDS011;11653;50.848;4.584;2024-02-26T02:13:40;2.33;;;1.50;;
22973;SDS011;11653;50.848;4.584;2024-02-26T02:16:06;2.67;;;1.60;;
22973;SDS011;11653;50.848;4.584;2024-02-26T02:18:32;2.93;;;1.50;;
22973;SDS011;11653;50.848;4.584;2024-02-26T02:21:01;1.67;;;1.47;;
22973;SDS011;11653;50.848;4.584;2024-02-26T02:23:27;3.10;;;1.53;;
22973;SDS011;11653;50.848;4.584;2024-02-26T02:25:53;1.70;;;1.50;;
22973;SDS011;11653;50.848;4.584;2024-02-26T02:28:22;1.47;;;1.37;;
22973;SDS011;11653;50.848;4.584;2024-02-26T02:30:50;3.00;;;1.50;;
22973;SDS011;11653;50.848;4.584;2024-02-26T02:33:16;2.50;;;1.17;;
22973;SDS011;11653;50.848;4.584;2024-02-26T02:35:42;1.37;;;1.20;;
22973;SDS011;11653;50.848;4.584;2024-02-26T02:38:08;2.93;;;1.50;;
22973;SDS011;11653;50.848;4.584;2024-02-26T02:40:33;3.83;;;1.43;;
22973;SDS011;11653;50.848;4.584;2024-02-26T02:42:59;2.30;;;1.60;;
22973;SDS011;11653;50.848;4.584;2024-02-26T02:45:27;2.47;;;1.90;;
22973;SDS011;11653;50.848;4.584;2024-02-26T02:47:53;1.47;;;1.37;;
22973;SDS011;11653;50.848;4.584;2024-02-26T02:50:18;3.00;;;1.50;;
22973;SDS011;11653;50.848;4.584;2024-02-26T02:52:44;2.60;;;1.70;;
22973;SDS011;11653;50.848;4.584;2024-02-26T02:55:10;1.77;;;1.57;;
22973;SDS011;11653;50.848;4.584;2024-02-26T02:57:36;2.43;;;1.57;;
22973;SDS011;11653;50.848;4.584;2024-02-26T03:00:09;2.83;;;1.80;;
22973;SDS011;11653;50.848;4.584;2024-02-26T03:02:35;4.33;;;1.70;;
22973;SDS011;11653;50.848;4.584;2024-02-26T03:05:01;1.53;;;1.43;;
22973;SDS011;11653;50.848;4.584;2024-02-26T03:07:30;2.27;;;2.03;;
22973;SDS011;11653;50.848;4.584;2024-02-26T03:09:56;3.50;;;1.50;;
22973;SDS011;11653;50.848;4.584;2024-02-26T03:12:22;1.90;;;1.63;;
22973;SDS011;11653;50.848;4.584;2024-02-26T03:14:48;2.57;;;1.73;;
22973;SDS011;11653;50.848;4.584;2024-02-26T03:17:13;3.50;;;1.63;;
22973;SDS011;11653;50.848;4.584;2024-02-26T03:19:39;3.07;;;1.57;;
22973;SDS011;11653;50.848;4.584;2024-02-26T03:22:05;3.80;;;1.47;;
22973;SDS011;11653;50.848;4.584;2024-02-26T03:24:30;1.57;;;1.47;;
22973;SDS011;11653;50.848;4.584;2024-02-26T03:26:56;2.27;;;1.87;;
22973;SDS011;11653;50.848;4.584;2024-02-26T03:29:22;2.63;;;1.67;;
22973;SDS011;11653;50.848;4.584;2024-02-26T03:31:48;3.47;;;1.73;;
22973;SDS011;11653;50.848;4.584;2024-02-26T03:34:13;1.87;;;1.40;;
22973;SDS011;11653;50.848;4.584;2024-02-26T03:36:39;3.13;;;1.63;;
22973;SDS011;11653;50.848;4.584;2024-02-26T03:39:06;2.97;;;1.63;;
22973;SDS011;11653;50.848;4.584;2024-02-26T03:41:35;3.10;;;1.60;;
22973;SDS011;11653;50.848;4.584;2024-02-26T03:44:01;1.87;;;1.77;;
22973;SDS011;11653;50.848;4.584;2024-02-26T03:46:27;3.20;;;1.97;;
22973;SDS011;11653;50.848;4.584;2024-02-26T03:48:53;2.20;;;1.70;;
22973;SDS011;11653;50.848;4.584;2024-02-26T03:51:19;2.00;;;1.90;;
22973;SDS011;11653;50.848;4.584;2024-02-26T03:53:44;2.07;;;1.77;;
22973;SDS011;11653;50.848;4.584;2024-02-26T03:56:13;2.60;;;2.00;;
22973;SDS011;11653;50.848;4.584;2024-02-26T03:58:39;3.20;;;1.90;;
22973;SDS011;11653;50.848;4.584;2024-02-26T04:01:07;2.30;;;1.90;;
22973;SDS011;11653;50.848;4.584;2024-02-26T04:03:33;2.00;;;1.80;;
22973;SDS011;11653;50.848;4.584;2024-02-26T04:05:59;2.23;;;1.90;;
22973;SDS011;11653;50.848;4.584;2024-02-26T04:08:25;2.40;;;2.07;;
22973;SDS011;11653;50.848;4.584;2024-02-26T04:10:51;3.50;;;2.00;;
22973;SDS011;11653;50.848;4.584;2024-02-26T04:13:17;3.37;;;2.23;;
22973;SDS011;11653;50.848;4.584;2024-02-26T04:15:43;2.20;;;2.00;;
22973;SDS011;11653;50.848;4.584;2024-02-26T04:18:09;3.50;;;2.50;;
22973;SDS011;11653;50.848;4.584;2024-02-26T04:20:34;8.73;;;3.10;;
22973;SDS011;11653;50.848;4.584;2024-02-26T04:23:00;2.70;;;2.30;;
22973;SDS011;11653;50.848;4.584;2024-02-26T04:25:25;3.33;;;2.17;;
22973;SDS011;11653;50.848;4.584;2024-02-26T04:27:51;3.73;;;3.23;;
22973;SDS011;11653;50.848;4.584;2024-02-26T04:30:17;3.07;;;2.57;;
22973;SDS011;11653;50.848;4.584;2024-02-26T04:32:43;4.00;;;2.67;;
22973;SDS011;11653;50.848;4.584;2024-02-26T04:35:09;6.47;;;2.80;;
22973;SDS011;11653;50.848;4.584;2024-02-26T04:37:35;4.53;;;3.03;;
22973;SDS011;11653;50.848;4.584;2024-02-26T04:40:01;6.70;;;3.10;;
22973;SDS011;11653;50.848;4.584;2024-02-26T04:42:27;3.80;;;2.93;;
22973;SDS011;11653;50.848;4.584;2024-02-26T04:44:53;3.40;;;3.10;;
22973;SDS011;11653;50.848;4.584;2024-02-26T04:47:20;3.73;;;3.20;;
22973;SDS011;11653;50.848;4.584;2024-02-26T04:49:47;4.83;;;3.43;;
22973;SDS011;11653;50.848;4.584;2024-02-26T04:52:14;4.20;;;3.20;;
22973;SDS011;11653;50.848;4.584;2024-02-26T04:54:39;5.77;;;3.57;;
22973;SDS011;11653;50.848;4.584;2024-02-26T04:57:05;7.23;;;4.37;;
22973;SDS011;11653;50.848;4.584;2024-02-26T04:59:31;4.43;;;3.70;;
22973;SDS011;11653;50.848;4.584;2024-02-26T05:01:56;4.93;;;3.63;;
22973;SDS011;11653;50.848;4.584;2024-02-26T05:04:22;4.67;;;4.23;;
22973;SDS011;11653;50.848;4.584;2024-02-26T05:06:47;5.97;;;4.20;;
22973;SDS011;11653;50.848;4.584;2024-02-26T05:09:13;7.73;;;4.47;;
22973;SDS011;11653;50.848;4.584;2024-02-26T05:11:39;5.40;;;4.33;;
22973;SDS011;11653;50.848;4.584;2024-02-26T05:14:05;5.53;;;4.57;;
22973;SDS011;11653;50.848;4.584;2024-02-26T05:16:31;6.10;;;4.50;;
22973;SDS011;11653;50.848;4.584;2024-02-26T05:18:57;8.17;;;4.87;;
22973;SDS011;11653;50.848;4.584;2024-02-26T05:21:22;8.63;;;5.60;;
22973;SDS011;11653;50.848;4.584;2024-02-26T05:23:48;7.57;;;5.20;;
22973;SDS011;11653;50.848;4.584;2024-02-26T05:26:20;8.43;;;5.40;;
22973;SDS011;11653;50.848;4.584;2024-02-26T05:28:47;7.07;;;5.60;;
22973;SDS011;11653;50.848;4.584;2024-02-26T05:31:13;7.57;;;5.50;;
22973;SDS011;11653;50.848;4.584;2024-02-26T05:33:39;7.80;;;6.40;;
22973;SDS011;11653;50.848;4.584;2024-02-26T05:36:04;5.57;;;4.93;;
22973;SDS011;11653;50.848;4.584;2024-02-26T05:38:31;8.50;;;6.10;;
22973;SDS011;11653;50.848;4.584;2024-02-26T05:40:57;9.73;;;6.83;;
22973;SDS011;11653;50.848;4.584;2024-02-26T05:43:24;7.90;;;6.87;;
22973;SDS011;11653;50.848;4.584;2024-02-26T05:45:50;10.80;;;6.43;;
22973;SDS011;11653;50.848;4.584;2024-02-26T05:48:15;11.27;;;7.23;;
22973;SDS011;11653;50.848;4.584;2024-02-26T05:50:41;10.43;;;7.17;;
22973;SDS011;11653;50.848;4.584;2024-02-26T05:53:07;12.43;;;8.20;;
22973;SDS011;11653;50.848;4.584;2024-02-26T05:55:32;10.77;;;7.97;;
22973;SDS011;11653;50.848;4.584;2024-02-26T05:57:58;12.33;;;8.93;;
22973;SDS011;11653;50.848;4.584;2024-02-26T06:00:24;12.40;;;8.47;;
22973;SDS011;11653;50.848;4.584;2024-02-26T06:02:49;9.53;;;7.73;;
22973;SDS011;11653;50.848;4.584;2024-02-26T06:05:15;12.57;;;8.63;;
22973;SDS011;11653;50.848;4.584;2024-02-26T06:07:40;13.33;;;10.40;;
22973;SDS011;11653;50.848;4.584;2024-02-26T06:10:06;11.50;;;9.47;;
22973;SDS011;11653;50.848;4.584;2024-02-26T06:12:34;12.93;;;8.27;;
22973;SDS011;11653;50.848;4.584;2024-02-26T06:15:00;15.30;;;9.80;;
22973;SDS011;11653;50.848;4.584;2024-02-26T06:17:26;13.03;;;9.47;;
22973;SDS011;11653;50.848;4.584;2024-02-26T06:19:52;14.20;;;9.27;;
22973;SDS011;11653;50.848;4.584;2024-02-26T06:22:18;15.03;;;10.20;;
22973;SDS011;11653;50.848;4.584;2024-02-26T06:24:44;13.63;;;10.07;;
22973;SDS011;11653;50.848;4.584;2024-02-26T06:27:09;15.63;;;12.10;;
22973;SDS011;11653;50.848;4.584;2024-02-26T06:29:35;16.40;;;10.60;;
22973;SDS011;11653;50.848;4.584;2024-02-26T06:32:00;16.90;;;11.30;;
22973;SDS011;11653;50.848;4.584;2024-02-26T06:34:26;12.53;;;10.77;;
22973;SDS011;11653;50.848;4.584;2024-02-26T06:36:52;10.00;;;8.17;;
22973;SDS011;11653;50.848;4.584;2024-02-26T06:39:17;14.33;;;11.57;;
22973;SDS011;11653;50.848;4.584;2024-02-26T06:41:44;13.00;;;10.80;;
22973;SDS011;11653;50.848;4.584;2024-02-26T06:44:11;17.30;;;12.60;;
22973;SDS011;11653;50.848;4.584;2024-02-26T06:46:38;16.40;;;12.40;;
22973;SDS011;11653;50.848;4.584;2024-02-26T06:49:04;15.47;;;10.87;;
22973;SDS011;11653;50.848;4.584;2024-02-26T06:51:30;15.03;;;12.03;;
22973;SDS011;11653;50.848;4.584;2024-02-26T06:53:56;15.57;;;12.70;;
22973;SDS011;11653;50.848;4.584;2024-02-26T06:56:21;20.17;;;12.60;;
22973;SDS011;11653;50.848;4.584;2024-02-26T06:58:47;15.77;;;11.93;;
22973;SDS011;11653;50.848;4.584;2024-02-26T07:01:13;17.47;;;13.10;;
22973;SDS011;11653;50.848;4.584;2024-02-26T07:03:41;16.97;;;13.33;;
22973;SDS011;11653;50.848;4.584;2024-02-26T07:06:08;18.60;;;14.20;;
22973;SDS011;11653;50.848;4.584;2024-02-26T07:08:34;11.97;;;9.77;;
22973;SDS011;11653;50.848;4.584;2024-02-26T07:10:59;15.90;;;11.97;;
22973;SDS011;11653;50.848;4.584;2024-02-26T07:13:25;18.53;;;13.60;;
22973;SDS011;11653;50.848;4.584;2024-02-26T07:15:50;17.13;;;14.23;;
22973;SDS011;11653;50.848;4.584;2024-02-26T07:18:16;14.70;;;11.60;;
22973;SDS011;11653;50.848;4.584;2024-02-26T07:20:42;17.30;;;13.13;;
22973;SDS011;11653;50.848;4.584;2024-02-26T07:23:08;15.57;;;11.60;;
22973;SDS011;11653;50.848;4.584;2024-02-26T07:25:33;16.03;;;13.77;;
22973;SDS011;11653;50.848;4.584;2024-02-26T07:27:59;15.73;;;12.83;;
22973;SDS011;11653;50.848;4.584;2024-02-26T07:30:25;15.07;;;11.47;;
22973;SDS011;11653;50.848;4.584;2024-02-26T07:32:50;15.80;;;12.30;;
22973;SDS011;11653;50.848;4.584;2024-02-26T07:35:16;17.63;;;13.43;;
22973;SDS011;11653;50.848;4.584;2024-02-26T07:37:42;18.80;;;13.47;;
22973;SDS011;11653;50.848;4.584;2024-02-26T07:40:08;15.60;;;12.43;;
22973;SDS011;11653;50.848;4.584;2024-02-26T07:42:34;17.57;;;11.80;;
22973;SDS011;11653;50.848;4.584;2024-02-26T07:45:00;15.87;;;13.13;;
22973;SDS011;11653;50.848;4.584;2024-02-26T07:47:25;19.27;;;13.13;;
22973;SDS011;11653;50.848;4.584;2024-02-26T07:49:51;13.93;;;12.10;;
22973;SDS011;11653;50.848;4.584;2024-02-26T07:52:17;10.73;;;8.17;;
22973;SDS011;11653;50.848;4.584;2024-02-26T07:54:43;16.83;;;13.37;;
22973;SDS011;11653;50.848;4.584;2024-02-26T07:57:08;13.90;;;10.03;;
22973;SDS011;11653;50.848;4.584;2024-02-26T07:59:34;14.50;;;11.40;;
22973;SDS011;11653;50.848;4.584;2024-02-26T08:01:59;14.03;;;12.17;;
22973;SDS011;11653;50.848;4.584;2024-02-26T08:04:28;15.10;;;11.77;;
22973;SDS011;11653;50.848;4.584;2024-02-26T08:06:54;15.27;;;12.50;;
22973;SDS011;11653;50.848;4.584;2024-02-26T08:09:19;13.87;;;11.37;;
22973;SDS011;11653;50.848;4.584;2024-02-26T08:11:45;12.40;;;10.80;;
22973;SDS011;11653;50.848;4.584;2024-02-26T08:14:11;17.87;;;11.33;;
22973;SDS011;11653;50.848;4.584;2024-02-26T08:16:36;17.90;;;13.17;;
22973;SDS011;11653;50.848;4.584;2024-02-26T08:19:02;9.50;;;8.53;;
22973;SDS011;11653;50.848;4.584;2024-02-26T08:21:28;14.33;;;10.67;;
22973;SDS011;11653;50.848;4.584;2024-02-26T08:23:53;13.13;;;11.27;;
22973;SDS011;11653;50.848;4.584;2024-02-26T08:26:20;15.60;;;12.57;;
22973;SDS011;11653;50.848;4.584;2024-02-26T08:28:47;13.17;;;11.07;;
22973;SDS011;11653;50.848;4.584;2024-02-26T08:31:14;11.33;;;9.57;;
22973;SDS011;11653;50.848;4.584;2024-02-26T08:33:39;11.53;;;10.33;;
22973;SDS011;11653;50.848;4.584;2024-02-26T08:36:05;12.43;;;9.40;;
22973;SDS011;11653;50.848;4.584;2024-02-26T08:38:31;13.63;;;10.80;;
22973;SDS011;11653;50.848;4.584;2024-02-26T08:40:59;14.00;;;11.63;;
22973;SDS011;11653;50.848;4.584;2024-02-26T08:43:26;11.80;;;10.17;;
22973;SDS011;11653;50.848;4.584;2024-02-26T08:45:51;13.60;;;10.53;;
22973;SDS011;11653;50.848;4.584;2024-02-26T08:48:17;14.03;;;10.97;;
22973;SDS011;11653;50.848;4.584;2024-02-26T08:50:43;11.13;;;9.90;;
22973;SDS011;11653;50.848;4.584;2024-02-26T08:53:09;13.90;;;10.10;;
22973;SDS011;11653;50.848;4.584;2024-02-26T08:55:35;13.50;;;10.53;;
22973;SDS011;11653;50.848;4.584;2024-02-26T08:58:00;11.80;;;10.33;;
22973;SDS011;11653;50.848;4.584;2024-02-26T09:00:26;12.90;;;11.03;;
22973;SDS011;11653;50.848;4.584;2024-02-26T09:02:51;11.03;;;9.77;;
22973;SDS011;11653;50.848;4.584;2024-02-26T09:05:17;11.53;;;9.77;;
22973;SDS011;11653;50.848;4.584;2024-02-26T09:07:43;11.40;;;9.83;;
22973;SDS011;11653;50.848;4.584;2024-02-26T09:10:09;11.87;;;9.13;;
22973;SDS011;11653;50.848;4.584;2024-02-26T09:12:35;11.57;;;10.13;;
22973;SDS011;11653;50.848;4.584;2024-02-26T09:15:02;16.10;;;11.63;;
22973;SDS011;11653;50.848;4.584;2024-02-26T09:17:28;11.47;;;10.17;;
22973;SDS011;11653;50.848;4.584;2024-02-26T09:19:54;11.80;;;10.50;;
22973;SDS011;11653;50.848;4.584;2024-02-26T09:22:19;10.40;;;9.03;;
22973;SDS011;11653;50.848;4.584;2024-02-26T09:24:45;13.57;;;10.73;;
22973;SDS011;11653;50.848;4.584;2024-02-26T09:27:11;13.13;;;10.77;;
22973;SDS011;11653;50.848;4.584;2024-02-26T09:29:37;11.90;;;9.60;;
22973;SDS011;11653;50.848;4.584;2024-02-26T09:32:02;14.10;;;10.60;;
22973;SDS011;11653;50.848;4.584;2024-02-26T09:34:28;12.50;;;10.97;;
22973;SDS011;11653;50.848;4.584;2024-02-26T09:36:54;11.40;;;10.20;;
22973;SDS011;11653;50.848;4.584;2024-02-26T09:39:20;12.40;;;10.37;;
22973;SDS011;11653;50.848;4.584;2024-02-26T09:41:47;12.30;;;10.17;;
22973;SDS011;11653;50.848;4.584;2024-02-26T09:44:23;13.37;;;9.60;;
22973;SDS011;11653;50.848;4.584;2024-02-26T09:46:50;12.37;;;9.80;;
22973;SDS011;11653;50.848;4.584;2024-02-26T09:49:20;10.53;;;7.97;;
22973;SDS011;11653;50.848;4.584;2024-02-26T09:51:49;10.90;;;9.20;;
22973;SDS011;11653;50.848;4.584;2024-02-26T09:54:15;10.80;;;8.90;;
22973;SDS011;11653;50.848;4.584;2024-02-26T09:56:42;10.87;;;9.37;;
22973;SDS011;11653;50.848;4.584;2024-02-26T09:59:13;11.33;;;9.60;;
22973;SDS011;11653;50.848;4.584;2024-02-26T10:01:42;11.13;;;8.70;;
22973;SDS011;11653;50.848;4.584;2024-02-26T10:04:08;10.73;;;9.63;;
22973;SDS011;11653;50.848;4.584;2024-02-26T10:06:35;9.07;;;7.83;;
22973;SDS011;11653;50.848;4.584;2024-02-26T10:09:02;11.00;;;7.90;;
22973;SDS011;11653;50.848;4.584;2024-02-26T10:11:31;8.97;;;6.63;;
22973;SDS011;11653;50.848;4.584;2024-02-26T10:13:57;10.67;;;8.07;;
22973;SDS011;11653;50.848;4.584;2024-02-26T10:16:23;8.90;;;7.27;;
22973;SDS011;11653;50.848;4.584;2024-02-26T10:18:51;10.77;;;7.90;;
22973;SDS011;11653;50.848;4.584;2024-02-26T10:21:19;8.90;;;7.57;;
22973;SDS011;11653;50.848;4.584;2024-02-26T10:23:46;8.57;;;7.50;;
22973;SDS011;11653;50.848;4.584;2024-02-26T10:26:12;8.77;;;7.87;;
22973;SDS011;11653;50.848;4.584;2024-02-26T10:28:42;8.40;;;7.43;;
22973;SDS011;11653;50.848;4.584;2024-02-26T10:31:09;8.40;;;7.50;;
22973;SDS011;11653;50.848;4.584;2024-02-26T10:33:35;10.17;;;8.00;;
22973;SDS011;11653;50.848;4.584;2024-02-26T10:36:02;9.93;;;7.77;;
22973;SDS011;11653;50.848;4.584;2024-02-26T10:38:30;9.43;;;7.70;;
22973;SDS011;11653;50.848;4.584;2024-02-26T10:40:56;10.57;;;7.80;;
22973;SDS011;11653;50.848;4.584;2024-02-26T10:43:21;9.27;;;6.80;;
22973;SDS011;11653;50.848;4.584;2024-02-26T10:45:47;8.50;;;6.07;;
22973;SDS011;11653;50.848;4.584;2024-02-26T10:48:13;8.03;;;7.20;;
22973;SDS011;11653;50.848;4.584;2024-02-26T10:50:40;7.97;;;6.47;;
22973;SDS011;11653;50.848;4.584;2024-02-26T10:53:08;7.97;;;7.00;;
22973;SDS011;11653;50.848;4.584;2024-02-26T10:55:40;7.30;;;6.60;;
22973;SDS011;11653;50.848;4.584;2024-02-26T10:58:06;7.30;;;6.47;;
22973;SDS011;11653;50.848;4.584;2024-02-26T11:00:33;8.13;;;6.50;;
22973;SDS011;11653;50.848;4.584;2024-02-26T11:03:01;7.93;;;6.70;;
22973;SDS011;11653;50.848;4.584;2024-02-26T11:05:30;7.03;;;6.03;;
22973;SDS011;11653;50.848;4.584;2024-02-26T11:07:58;6.77;;;6.07;;
22973;SDS011;11653;50.848;4.584;2024-02-26T11:10:26;6.83;;;5.50;;
22973;SDS011;11653;50.848;4.584;2024-02-26T11:12:55;5.63;;;5.07;;
22973;SDS011;11653;50.848;4.584;2024-02-26T11:15:24;6.00;;;5.40;;
22973;SDS011;11653;50.848;4.584;2024-02-26T11:17:51;7.67;;;6.60;;
22973;SDS011;11653;50.848;4.584;2024-02-26T11:20:19;7.50;;;6.30;;
22973;SDS011;11653;50.848;4.584;2024-02-26T11:22:45;6.83;;;5.80;;
22973;SDS011;11653;50.848;4.584;2024-02-26T11:25:11;6.50;;;5.90;;
22973;SDS011;11653;50.848;4.584;2024-02-26T11:27:44;6.97;;;6.27;;
22973;SDS011;11653;50.848;4.584;2024-02-26T11:30:14;7.23;;;6.30;;
22973;SDS011;11653;50.848;4.584;2024-02-26T11:32:43;6.80;;;5.67;;
22973;SDS011;11653;50.848;4.584;2024-02-26T11:35:12;6.43;;;5.77;;
22973;SDS011;11653;50.848;4.584;2024-02-26T11:37:40;6.03;;;5.00;;
22973;SDS011;11653;50.848;4.584;2024-02-26T11:40:10;6.13;;;5.43;;
22973;SDS011;11653;50.848;4.584;2024-02-26T11:42:42;6.27;;;5.47;;
22973;SDS011;11653;50.848;4.584;2024-02-26T11:48:03;5.60;;;5.07;;
22973;SDS011;11653;50.848;4.584;2024-02-26T11:50:36;6.37;;;5.77;;
22973;SDS011;11653;50.848;4.584;2024-02-26T11:53:20;6.97;;;5.33;;
22973;SDS011;11653;50.848;4.584;2024-02-26T11:58:42;4.83;;;4.43;;
22973;SDS011;11653;50.848;4.584;2024-02-26T12:04:07;5.90;;;4.90;;
22973;SDS011;11653;50.848;4.584;2024-02-26T12:06:40;5.80;;;4.77;;
22973;SDS011;11653;50.848;4.584;2024-02-26T12:09:10;6.40;;;5.80;;
22973;SDS011;11653;50.848;4.584;2024-02-26T12:11:38;7.07;;;4.77;;
22973;SDS011;11653;50.848;4.584;2024-02-26T12:14:08;5.77;;;5.20;;
22973;SDS011;11653;50.848;4.584;2024-02-26T12:16:38;6.73;;;5.73;;
22973;SDS011;11653;50.848;4.584;2024-02-26T12:19:08;5.70;;;5.10;;
22973;SDS011;11653;50.848;4.584;2024-02-26T12:21:35;5.97;;;5.37;;
22973;SDS011;11653;50.848;4.584;2024-02-26T12:24:12;5.80;;;5.20;;
22973;SDS011;11653;50.848;4.584;2024-02-26T12:26:39;6.83;;;5.37;;
22973;SDS011;11653;50.848;4.584;2024-02-26T12:29:05;6.20;;;5.60;;
22973;SDS011;11653;50.848;4.584;2024-02-26T12:31:34;7.27;;;5.60;;
22973;SDS011;11653;50.848;4.584;2024-02-26T12:34:04;5.83;;;5.23;;
22973;SDS011;11653;50.848;4.584;2024-02-26T12:36:30;6.20;;;5.60;;
22973;SDS011;11653;50.848;4.584;2024-02-26T12:38:56;6.20;;;4.83;;
22973;SDS011;11653;50.848;4.584;2024-02-26T12:41:22;7.03;;;5.40;;
22973;SDS011;11653;50.848;4.584;2024-02-26T12:43:48;4.93;;;4.47;;
22973;SDS011;11653;50.848;4.584;2024-02-26T12:46:14;4.90;;;4.50;;
22973;SDS011;11653;50.848;4.584;2024-02-26T12:48:44;4.80;;;4.40;;
22973;SDS011;11653;50.848;4.584;2024-02-26T12:51:12;5.03;;;4.60;;
22973;SDS011;11653;50.848;4.584;2024-02-26T12:53:40;5.80;;;5.30;;
22973;SDS011;11653;50.848;4.584;2024-02-26T12:56:09;5.67;;;5.17;;
22973;SDS011;11653;50.848;4.584;2024-02-26T12:58:37;5.97;;;4.97;;
22973;SDS011;11653;50.848;4.584;2024-02-26T13:01:05;7.23;;;5.13;;
22973;SDS011;11653;50.848;4.584;2024-02-26T13:03:32;5.37;;;4.87;;
22973;SDS011;11653;50.848;4.584;2024-02-26T13:06:00;6.20;;;5.60;;
22973;SDS011;11653;50.848;4.584;2024-02-26T13:08:27;6.23;;;5.50;;
22973;SDS011;11653;50.848;4.584;2024-02-26T13:10:52;6.27;;;5.67;;
22973;SDS011;11653;50.848;4.584;2024-02-26T13:13:18;7.83;;;5.70;;
22973;SDS011;11653;50.848;4.584;2024-02-26T13:15:45;6.20;;;5.60;;
22973;SDS011;11653;50.848;4.584;2024-02-26T13:18:11;6.23;;;5.63;;
22973;SDS011;11653;50.848;4.584;2024-02-26T13:20:40;6.40;;;5.77;;
22973;SDS011;11653;50.848;4.584;2024-02-26T13:23:07;6.73;;;5.93;;
22973;SDS011;11653;50.848;4.584;2024-02-26T13:25:33;7.23;;;6.00;;
22973;SDS011;11653;50.848;4.584;2024-02-26T13:30:38;6.80;;;6.10;;
22973;SDS011;11653;50.848;4.584;2024-02-26T13:33:11;8.40;;;5.77;;
22973;SDS011;11653;50.848;4.584;2024-02-26T13:35:38;6.63;;;5.23;;
22973;SDS011;11653;50.848;4.584;2024-02-26T13:38:04;6.93;;;6.23;;
22973;SDS011;11653;50.848;4.584;2024-02-26T13:40:33;7.40;;;6.70;;
22973;SDS011;11653;50.848;4.584;2024-02-26T13:43:00;7.60;;;6.80;;
22973;SDS011;11653;50.848;4.584;2024-02-26T13:45:26;6.27;;;5.67;;
22973;SDS011;11653;50.848;4.584;2024-02-26T13:47:52;8.77;;;7.20;;
22973;SDS011;11653;50.848;4.584;2024-02-26T13:50:18;10.53;;;7.70;;
22973;SDS011;11653;50.848;4.584;2024-02-26T13:52:46;10.67;;;8.20;;
22973;SDS011;11653;50.848;4.584;2024-02-26T13:55:18;9.50;;;8.00;;
22973;SDS011;11653;50.848;4.584;2024-02-26T13:57:44;9.60;;;8.60;;
22973;SDS011;11653;50.848;4.584;2024-02-26T14:00:10;10.27;;;8.30;;
22973;SDS011;11653;50.848;4.584;2024-02-26T14:02:36;8.43;;;7.37;;
22973;SDS011;11653;50.848;4.584;2024-02-26T14:05:02;10.23;;;9.20;;
22973;SDS011;11653;50.848;4.584;2024-02-26T14:07:29;11.67;;;8.93;;
22973;SDS011;11653;50.848;4.584;2024-02-26T14:09:57;12.30;;;9.47;;
22973;SDS011;11653;50.848;4.584;2024-02-26T14:12:23;11.60;;;9.03;;
22973;SDS011;11653;50.848;4.584;2024-02-26T14:14:48;12.97;;;9.63;;
22973;SDS011;11653;50.848;4.584;2024-02-26T14:17:14;12.47;;;9.37;;
22973;SDS011;11653;50.848;4.584;2024-02-26T14:19:40;14.13;;;10.43;;
22973;SDS011;11653;50.848;4.584;2024-02-26T14:22:12;10.57;;;7.67;;
22973;SDS011;11653;50.848;4.584;2024-02-26T14:24:38;13.40;;;9.27;;
22973;SDS011;11653;50.848;4.584;2024-02-26T14:27:05;10.43;;;8.30;;
22973;SDS011;11653;50.848;4.584;2024-02-26T14:29:32;12.37;;;9.90;;
22973;SDS011;11653;50.848;4.584;2024-02-26T14:31:58;12.07;;;9.20;;
22973;SDS011;11653;50.848;4.584;2024-02-26T14:34:24;10.13;;;8.20;;
22973;SDS011;11653;50.848;4.584;2024-02-26T14:36:49;11.40;;;8.20;;
22973;SDS011;11653;50.848;4.584;2024-02-26T14:39:15;10.27;;;7.67;;
22973;SDS011;11653;50.848;4.584;2024-02-26T14:41:41;11.37;;;9.10;;
22973;SDS011;11653;50.848;4.584;2024-02-26T14:44:07;11.63;;;9.17;;
22973;SDS011;11653;50.848;4.584;2024-02-26T14:46:33;11.33;;;9.37;;
22973;SDS011;11653;50.848;4.584;2024-02-26T14:48:59;11.70;;;8.83;;